createdAt,value
2023-04-23T00:00:57.961Z,34.67
2023-04-23T00:03:27.282Z,34.59
2023-04-23T00:05:56.675Z,34.61
2023-04-23T00:08:25.982Z,33.67
2023-04-23T00:10:54.602Z,29.91
2023-04-23T00:13:22.770Z,29.55
2023-04-23T00:15:51.210Z,29.23
2023-04-23T00:18:20.071Z,29.51
2023-04-23T00:20:47.979Z,29.28
2023-04-23T00:23:15.983Z,29.05
2023-04-23T00:25:43.949Z,28.91
2023-04-23T00:28:12.077Z,28.33
2023-04-23T00:30:40.552Z,28.58
2023-04-23T00:33:08.677Z,28.84
2023-04-23T00:35:36.794Z,28.72
2023-04-23T00:38:06.054Z,28.93
2023-04-23T00:40:34.165Z,28.86
2023-04-23T00:43:02.142Z,29.06
2023-04-23T00:45:30.412Z,29.16
2023-04-23T00:47:58.634Z,29.35
2023-04-23T00:50:26.756Z,29.39
2023-04-23T00:52:54.735Z,29.31
2023-04-23T00:55:22.800Z,29.29
2023-04-23T00:57:50.999Z,29.41
2023-04-23T01:00:20.392Z,29.23
2023-04-23T01:02:50.734Z,29.11
2023-04-23T01:05:19.202Z,29.16
2023-04-23T01:07:47.557Z,29.37
2023-04-23T01:10:16.921Z,29.22
2023-04-23T01:12:46.554Z,29.35
2023-04-23T01:15:14.546Z,29.35
2023-04-23T01:17:43.317Z,29.53
2023-04-23T01:20:11.629Z,30.86
2023-04-23T01:22:39.790Z,33.79
2023-04-23T01:25:08.738Z,34.66
2023-04-23T01:27:37.282Z,34.78
2023-04-23T01:30:06.088Z,34.77
2023-04-23T01:32:35.606Z,34.87
2023-04-23T01:35:04.977Z,34.90
2023-04-23T01:37:33.444Z,35.03
2023-04-23T01:40:01.470Z,35.08
2023-04-23T01:42:30.226Z,34.98
2023-04-23T01:44:58.156Z,34.74
2023-04-23T01:47:26.587Z,34.76
2023-04-23T01:49:54.919Z,35.12
2023-04-23T01:52:23.045Z,35.28
2023-04-23T01:54:51.781Z,35.25
2023-04-23T01:57:24.240Z,35.56
2023-04-23T02:00:04.104Z,35.75
2023-04-23T02:02:42.241Z,35.91
2023-04-23T02:05:12.888Z,36.61
2023-04-23T02:07:41.180Z,36.70
2023-04-23T02:10:10.286Z,36.82
2023-04-23T02:12:38.811Z,36.86
2023-04-23T02:15:07.784Z,36.70
2023-04-23T02:17:35.887Z,36.65
2023-04-23T02:20:04.487Z,36.80
2023-04-23T02:22:32.626Z,36.63
2023-04-23T02:25:02.049Z,36.37
2023-04-23T02:27:30.303Z,36.07
2023-04-23T02:29:58.393Z,35.96
2023-04-23T02:32:27.492Z,36.23
2023-04-23T02:34:56.141Z,36.33
2023-04-23T02:37:24.102Z,36.15
2023-04-23T02:39:52.271Z,36.35
2023-04-23T02:42:20.372Z,36.37
2023-04-23T02:44:48.760Z,36.42
2023-04-23T02:47:19.236Z,36.45
2023-04-23T02:49:47.375Z,36.46
2023-04-23T02:52:15.516Z,36.64
2023-04-23T02:54:43.670Z,36.82
2023-04-23T02:57:14.652Z,36.49
2023-04-23T02:59:42.879Z,36.36
2023-04-23T03:02:11.135Z,36.32
2023-04-23T03:04:40.259Z,36.39
2023-04-23T03:07:08.699Z,36.45
2023-04-23T03:09:37.068Z,36.40
2023-04-23T03:12:05.198Z,36.78
2023-04-23T03:14:33.513Z,37.00
2023-04-23T03:17:01.700Z,37.06
2023-04-23T03:19:31.675Z,37.16
2023-04-23T03:22:00.879Z,37.86
2023-04-23T03:24:31.877Z,38.16
2023-04-23T03:27:00.199Z,38.32
2023-04-23T03:29:28.524Z,38.37
2023-04-23T03:31:56.962Z,38.34
2023-04-23T03:34:25.225Z,38.32
2023-04-23T03:36:53.272Z,38.15
2023-04-23T03:39:21.431Z,38.27
2023-04-23T03:41:54.667Z,38.40
2023-04-23T03:44:26.102Z,38.50
2023-04-23T03:49:22.478Z,43.74
2023-04-23T03:51:49.458Z,41.66
2023-04-23T03:54:17.882Z,41.08
2023-04-23T03:57:22.931Z,41.12
2023-04-23T03:59:56.109Z,40.57
2023-04-23T04:02:24.459Z,39.93
2023-04-23T04:04:54.282Z,39.65
2023-04-23T04:07:21.478Z,39.64
2023-04-23T04:09:48.854Z,39.47
2023-04-23T04:12:16.193Z,39.18
2023-04-23T04:14:43.465Z,38.94
2023-04-23T04:17:11.704Z,38.90
2023-04-23T04:19:38.555Z,38.58
2023-04-23T04:22:06.637Z,38.09
2023-04-23T04:24:34.989Z,38.29
2023-04-23T04:27:01.935Z,38.19
2023-04-23T04:29:29.296Z,37.91
2023-04-23T04:31:56.175Z,37.72
2023-04-23T04:34:23.184Z,37.66
2023-04-23T04:36:53.191Z,37.54
2023-04-23T04:39:20.180Z,37.48
2023-04-23T04:41:47.328Z,37.31
2023-04-23T04:44:15.796Z,37.15
2023-04-23T04:46:42.427Z,36.95
2023-04-23T04:49:10.278Z,36.84
2023-04-23T04:51:38.356Z,36.21
2023-04-23T04:54:05.713Z,36.06
2023-04-23T04:56:33.825Z,35.66
2023-04-23T04:59:00.723Z,35.59
2023-04-23T05:01:28.230Z,35.31
2023-04-23T05:03:55.689Z,35.13
2023-04-23T05:06:22.484Z,35.51
2023-04-23T05:08:49.369Z,34.66
2023-04-23T05:11:16.987Z,34.00
2023-04-23T05:13:45.568Z,34.06
2023-04-23T05:16:12.672Z,33.63
2023-04-23T05:18:40.630Z,33.04
2023-04-23T05:21:07.472Z,32.55
2023-04-23T05:23:34.814Z,32.04
2023-04-23T05:26:02.949Z,31.74
2023-04-23T05:28:30.384Z,31.58
2023-04-23T05:30:57.262Z,31.75
2023-04-23T05:33:24.993Z,31.38
2023-04-23T05:35:54.612Z,31.18
2023-04-23T05:38:21.140Z,31.22
2023-04-23T05:40:47.859Z,31.07
2023-04-23T05:43:14.581Z,30.99
2023-04-23T05:45:41.512Z,30.63
2023-04-23T05:48:08.271Z,30.17
2023-04-23T05:50:35.402Z,30.20
2023-04-23T05:53:02.449Z,29.63
2023-04-23T05:55:29.568Z,29.09
2023-04-23T05:57:56.123Z,28.82
2023-04-23T06:00:22.835Z,28.62
2023-04-23T06:02:49.771Z,28.17
2023-04-23T06:05:16.877Z,27.77
2023-04-23T06:07:43.943Z,27.13
2023-04-23T06:10:11.978Z,25.99
2023-04-23T06:12:39.295Z,24.59
2023-04-23T06:15:07.919Z,23.84
2023-04-23T06:17:35.821Z,22.81
2023-04-23T06:20:02.631Z,21.42
2023-04-23T06:22:30.685Z,21.56
2023-04-23T06:24:57.242Z,21.70
2023-04-23T06:27:23.914Z,20.15
2023-04-23T06:29:51.831Z,19.40
2023-04-23T06:32:20.514Z,18.84
2023-04-23T06:35:00.242Z,18.86
2023-04-23T06:37:29.473Z,18.89
2023-04-23T06:39:57.746Z,18.85
2023-04-23T06:42:24.282Z,18.08
2023-04-23T06:45:14.749Z,17.60
2023-04-23T06:47:42.431Z,17.24
2023-04-23T06:50:09.135Z,17.15
2023-04-23T06:52:36.721Z,16.31
2023-04-23T06:55:03.540Z,15.77
2023-04-23T06:57:30.442Z,15.54
2023-04-23T06:59:56.946Z,15.12
2023-04-23T07:02:26.332Z,15.26
2023-04-23T07:04:53.096Z,15.16
2023-04-23T07:07:20.468Z,15.15
2023-04-23T07:09:47.052Z,13.98
2023-04-23T07:12:13.687Z,13.72
2023-04-23T07:14:40.718Z,14.28
2023-04-23T07:17:07.398Z,14.43
2023-04-23T07:19:34.484Z,14.57
2023-04-23T07:22:01.051Z,14.20
2023-04-23T07:24:27.969Z,14.00
2023-04-23T07:26:54.575Z,13.85
2023-04-23T07:29:21.115Z,13.79
2023-04-23T07:31:47.711Z,13.25
2023-04-23T07:34:14.292Z,13.08
2023-04-23T07:36:40.862Z,13.10
2023-04-23T07:39:07.520Z,13.17
2023-04-23T07:41:34.715Z,13.26
2023-04-23T07:44:01.350Z,13.03
2023-04-23T07:46:28.443Z,13.24
2023-04-23T07:48:55.424Z,12.87
2023-04-23T07:51:25.926Z,12.83
2023-04-23T07:53:53.762Z,13.05
2023-04-23T07:56:21.825Z,12.66
2023-04-23T07:58:48.340Z,12.41
2023-04-23T08:01:15.595Z,12.54
2023-04-23T08:03:42.495Z,12.79
2023-04-23T08:06:11.552Z,13.28
2023-04-23T08:08:38.791Z,12.93
2023-04-23T08:11:06.257Z,12.82
2023-04-23T08:13:32.814Z,12.65
2023-04-23T08:15:59.792Z,12.68
2023-04-23T08:18:26.378Z,12.92
2023-04-23T08:20:53.551Z,12.89
2023-04-23T08:23:20.457Z,12.61
2023-04-23T08:25:47.008Z,12.99
2023-04-23T08:28:14.115Z,12.80
2023-04-23T08:30:40.898Z,12.50
2023-04-23T08:33:07.535Z,12.34
2023-04-23T08:35:34.394Z,12.19
2023-04-23T08:38:01.422Z,12.14
2023-04-23T08:40:29.979Z,12.43
2023-04-23T08:42:56.493Z,12.26
2023-04-23T08:45:23.626Z,12.56
2023-04-23T08:47:50.745Z,12.66
2023-04-23T08:50:19.123Z,12.68
2023-04-23T08:52:56.077Z,12.24
2023-04-23T08:55:22.954Z,11.97
2023-04-23T08:57:50.142Z,11.98
2023-04-23T09:00:20.501Z,12.47
2023-04-23T09:02:48.585Z,12.48
2023-04-23T09:05:15.419Z,12.40
2023-04-23T09:07:42.062Z,11.85
2023-04-23T09:10:10.671Z,11.82
2023-04-23T09:12:38.736Z,12.01
2023-04-23T09:15:10.183Z,12.31
2023-04-23T09:17:44.021Z,12.49
2023-04-23T09:20:11.272Z,12.50
2023-04-23T09:22:48.408Z,12.74
2023-04-23T09:25:17.546Z,12.03
2023-04-23T09:27:45.429Z,11.78
2023-04-23T09:30:12.509Z,12.37
2023-04-23T09:32:43.260Z,12.00
2023-04-23T09:35:13.107Z,12.22
2023-04-23T09:37:47.591Z,12.03
2023-04-23T09:40:15.291Z,12.57
2023-04-23T09:42:41.952Z,12.73
2023-04-23T09:45:11.692Z,12.76
2023-04-23T09:47:39.434Z,12.43
2023-04-23T09:50:06.705Z,12.39
2023-04-23T09:52:33.738Z,12.34
2023-04-23T09:55:04.832Z,12.25
2023-04-23T09:57:38.094Z,11.87
2023-04-23T10:00:18.332Z,11.83
2023-04-23T10:02:48.866Z,11.61
2023-04-23T10:07:50.313Z,11.52
2023-04-23T10:10:17.711Z,10.85
2023-04-23T10:15:16.759Z,10.96
2023-04-23T10:17:43.960Z,11.40
2023-04-23T10:20:12.042Z,12.09
2023-04-23T10:22:39.320Z,12.20
2023-04-23T10:25:09.492Z,12.66
2023-04-23T10:27:51.916Z,12.68
2023-04-23T10:30:19.248Z,12.95
2023-04-23T10:32:45.852Z,13.06
2023-04-23T10:35:12.407Z,12.80
2023-04-23T10:37:39.015Z,13.29
2023-04-23T10:40:13.585Z,13.37
2023-04-23T10:42:40.297Z,13.60
2023-04-23T10:45:23.125Z,14.02
2023-04-23T10:47:52.976Z,13.85
2023-04-23T10:50:23.672Z,14.19
2023-04-23T10:52:53.726Z,13.42
2023-04-23T10:55:25.273Z,13.16
2023-04-23T10:58:05.143Z,13.63
2023-04-23T11:00:40.950Z,13.15
2023-04-23T11:03:30.911Z,12.70
2023-04-23T11:06:01.646Z,12.39
2023-04-23T11:08:31.381Z,12.63
2023-04-23T11:10:58.861Z,12.69
2023-04-23T11:13:26.426Z,12.33
2023-04-23T11:16:15.777Z,12.89
2023-04-23T11:18:59.131Z,13.08
2023-04-23T11:22:03.286Z,13.34
2023-04-23T11:24:30.767Z,13.80
2023-04-23T11:26:57.505Z,14.13
2023-04-23T11:29:25.244Z,14.43
2023-04-23T11:32:01.610Z,14.23
2023-04-23T11:34:31.658Z,13.82
2023-04-23T11:36:58.952Z,13.93
2023-04-23T11:39:26.373Z,14.08
2023-04-23T11:41:53.668Z,14.33
2023-04-23T11:44:21.428Z,14.00
2023-04-23T11:46:49.092Z,14.22
2023-04-23T11:49:16.425Z,14.53
2023-04-23T11:51:44.848Z,14.55
2023-04-23T11:54:13.171Z,14.54
2023-04-23T11:56:40.133Z,14.42
2023-04-23T11:59:06.765Z,14.53
2023-04-23T12:01:40.938Z,14.48
2023-04-23T12:04:27.974Z,14.11
2023-04-23T12:06:56.205Z,13.95
2023-04-23T12:09:24.247Z,14.12
2023-04-23T12:11:50.783Z,14.09
2023-04-23T12:14:20.185Z,14.29
2023-04-23T12:16:51.441Z,14.86
2023-04-23T12:19:25.420Z,14.45
2023-04-23T12:21:59.998Z,14.85
2023-04-23T12:24:31.000Z,14.71
2023-04-23T12:26:59.899Z,14.39
2023-04-23T12:29:26.674Z,14.62
2023-04-23T12:31:53.371Z,14.44
2023-04-23T12:34:20.760Z,14.82
2023-04-23T12:36:50.400Z,15.35
2023-04-23T12:39:35.717Z,14.54
2023-04-23T12:42:06.424Z,14.56
2023-04-23T12:44:34.735Z,14.77
2023-04-23T12:47:06.720Z,14.44
2023-04-23T12:49:34.382Z,14.64
2023-04-23T12:52:02.043Z,14.47
2023-04-23T12:54:30.691Z,14.82
2023-04-23T12:57:02.183Z,14.81
2023-04-23T12:59:29.768Z,14.74
2023-04-23T13:01:57.054Z,14.79
2023-04-23T13:04:23.611Z,14.98
2023-04-23T13:06:50.796Z,14.79
2023-04-23T13:09:17.520Z,15.01
2023-04-23T13:11:46.295Z,15.02
2023-04-23T13:14:13.028Z,15.07
2023-04-23T13:16:39.710Z,14.95
2023-04-23T13:19:06.563Z,15.27
2023-04-23T13:21:33.178Z,14.95
2023-04-23T13:23:59.890Z,14.71
2023-04-23T13:26:31.330Z,13.77
2023-04-23T13:28:58.831Z,14.14
2023-04-23T13:31:25.570Z,13.63
2023-04-23T13:33:52.215Z,13.27
2023-04-23T13:36:18.984Z,13.62
2023-04-23T13:38:46.056Z,13.95
2023-04-23T13:41:12.611Z,14.17
2023-04-23T13:43:39.264Z,14.25
2023-04-23T13:46:06.183Z,13.96
2023-04-23T13:48:33.364Z,14.50
2023-04-23T13:51:00.670Z,14.25
2023-04-23T13:53:27.473Z,14.33
2023-04-23T13:55:55.320Z,14.15
2023-04-23T13:58:22.966Z,14.09
2023-04-23T14:00:50.032Z,14.42
2023-04-23T14:03:19.838Z,14.25
2023-04-23T14:05:46.883Z,14.79
2023-04-23T14:08:14.676Z,14.36
2023-04-23T14:10:43.551Z,14.45
2023-04-23T14:13:10.562Z,14.94
2023-04-23T14:15:37.307Z,14.52
2023-04-23T14:18:05.135Z,14.73
2023-04-23T14:20:31.720Z,15.03
2023-04-23T14:23:31.132Z,14.77
2023-04-23T14:25:58.562Z,15.22
2023-04-23T14:28:33.430Z,14.98
2023-04-23T14:31:00.564Z,14.77
2023-04-23T14:33:28.771Z,15.27
2023-04-23T14:35:55.657Z,15.48
2023-04-23T14:38:22.319Z,16.00
2023-04-23T14:40:48.859Z,15.65
2023-04-23T14:43:16.358Z,15.40
2023-04-23T14:45:43.416Z,15.89
2023-04-23T14:48:10.071Z,15.64
2023-04-23T14:50:37.186Z,15.65
2023-04-23T14:53:06.539Z,16.11
2023-04-23T14:55:33.367Z,15.76
2023-04-23T14:57:59.944Z,16.00
2023-04-23T15:00:26.743Z,15.64
2023-04-23T15:02:53.452Z,15.69
2023-04-23T15:05:20.573Z,16.40
2023-04-23T15:07:47.183Z,16.12
2023-04-23T15:10:14.458Z,16.55
2023-04-23T15:12:43.049Z,16.81
2023-04-23T15:15:36.907Z,16.76
2023-04-23T15:18:07.754Z,17.45
2023-04-23T15:20:34.700Z,16.98
2023-04-23T15:23:01.307Z,16.51
2023-04-23T15:25:28.987Z,16.82
2023-04-23T15:27:58.475Z,16.34
2023-04-23T15:30:25.546Z,17.04
2023-04-23T15:32:54.709Z,16.97
2023-04-23T15:35:24.909Z,16.77
2023-04-23T15:37:54.610Z,16.96
2023-04-23T15:40:21.298Z,16.48
2023-04-23T15:42:49.582Z,16.40
2023-04-23T15:45:16.359Z,17.00
2023-04-23T15:47:43.017Z,16.67
2023-04-23T15:50:10.411Z,16.92
2023-04-23T15:52:37.589Z,16.79
2023-04-23T15:55:05.363Z,16.82
2023-04-23T15:57:32.401Z,17.06
2023-04-23T15:59:59.409Z,17.06
2023-04-23T16:02:26.626Z,17.44
2023-04-23T16:06:06.612Z,19.82
2023-04-23T16:08:33.486Z,17.94
2023-04-23T16:11:00.234Z,17.80
2023-04-23T16:13:29.048Z,17.97
2023-04-23T16:15:56.258Z,17.79
2023-04-23T16:18:23.210Z,17.72
2023-04-23T16:20:50.243Z,17.74
2023-04-23T16:23:17.108Z,17.35
2023-04-23T16:25:44.412Z,17.51
2023-04-23T16:28:13.363Z,17.19
2023-04-23T16:30:40.486Z,17.56
2023-04-23T16:33:07.498Z,17.76
2023-04-23T16:35:34.379Z,17.63
2023-04-23T16:38:01.257Z,18.16
2023-04-23T16:40:28.856Z,17.45
2023-04-23T16:42:58.381Z,18.07
2023-04-23T16:45:25.212Z,18.24
2023-04-23T16:47:51.991Z,17.99
2023-04-23T16:50:18.806Z,18.68
2023-04-23T16:52:45.688Z,19.04
2023-04-23T16:55:12.596Z,19.47
2023-04-23T16:57:39.548Z,19.93
2023-04-23T17:00:08.017Z,19.92
2023-04-23T17:02:34.985Z,20.37
2023-04-23T17:05:02.018Z,20.73
2023-04-23T17:07:29.119Z,20.97
2023-04-23T17:09:55.938Z,22.15
2023-04-23T17:12:22.958Z,22.26
2023-04-23T17:14:49.829Z,22.56
2023-04-23T17:17:16.638Z,22.74
2023-04-23T17:19:43.437Z,23.06
2023-04-23T17:22:10.855Z,23.55
2023-04-23T17:24:39.154Z,23.94
2023-04-23T17:27:06.178Z,23.98
2023-04-23T17:29:32.909Z,24.23
2023-04-23T17:32:00.111Z,24.79
2023-04-23T17:34:26.981Z,25.19
2023-04-23T17:36:53.704Z,25.10
2023-04-23T17:39:22.950Z,25.58
2023-04-23T17:41:49.771Z,25.75
2023-04-23T17:44:16.633Z,26.52
2023-04-23T17:46:43.425Z,26.58
2023-04-23T17:49:10.714Z,26.54
2023-04-23T17:51:37.588Z,26.65
2023-04-23T17:54:04.901Z,26.45
2023-04-23T17:56:31.968Z,26.31
2023-04-23T17:58:58.718Z,26.25
2023-04-23T18:01:25.773Z,27.08
2023-04-23T18:03:53.696Z,27.15
2023-04-23T18:06:21.002Z,26.74
2023-04-23T18:08:47.777Z,27.30
2023-04-23T18:11:15.901Z,27.03
2023-04-23T18:13:43.140Z,26.79
2023-04-23T18:16:10.883Z,27.12
2023-04-23T18:18:37.778Z,26.99
2023-04-23T18:21:05.218Z,27.59
2023-04-23T18:23:32.104Z,28.10
2023-04-23T18:26:01.608Z,28.11
2023-04-23T18:28:28.970Z,28.15
2023-04-23T18:31:02.487Z,27.95
2023-04-23T18:33:46.032Z,28.34
2023-04-23T18:36:32.518Z,27.96
2023-04-23T18:38:59.338Z,27.55
2023-04-23T18:41:28.795Z,27.81
2023-04-23T18:43:55.709Z,28.06
2023-04-23T18:46:23.402Z,28.33
2023-04-23T18:49:26.098Z,28.35
2023-04-23T18:51:52.861Z,28.69
2023-04-23T18:54:19.568Z,29.06
2023-04-23T18:56:47.108Z,28.98
2023-04-23T18:59:14.090Z,29.07
2023-04-23T19:01:42.322Z,29.30
2023-04-23T19:04:09.232Z,29.22
2023-04-23T19:06:36.684Z,29.03
2023-04-23T19:09:03.608Z,28.97
2023-04-23T19:11:35.013Z,29.05
2023-04-23T19:14:02.077Z,28.67
2023-04-23T19:16:29.021Z,28.58
2023-04-23T19:18:56.025Z,28.87
2023-04-23T19:21:23.072Z,28.83
2023-04-23T19:23:51.712Z,29.08
2023-04-23T19:26:19.041Z,28.99
2023-04-23T19:28:45.879Z,29.23
2023-04-23T19:31:12.729Z,29.57
2023-04-23T19:33:43.671Z,29.75
2023-04-23T19:36:10.840Z,30.00
2023-04-23T19:38:38.097Z,29.91
2023-04-23T19:41:04.823Z,29.86
2023-04-23T19:43:31.519Z,30.19
2023-04-23T19:45:58.362Z,30.02
2023-04-23T19:48:25.234Z,30.03
2023-04-23T19:50:52.082Z,29.87
2023-04-23T19:53:18.825Z,29.91
2023-04-23T19:55:45.759Z,30.21
2023-04-23T19:58:12.912Z,30.25
2023-04-23T20:00:41.423Z,30.53
2023-04-23T20:03:08.796Z,30.50
2023-04-23T20:05:35.802Z,30.07
2023-04-23T20:08:04.549Z,30.10
2023-04-23T20:10:31.822Z,30.23
2023-04-23T20:12:59.923Z,30.28
2023-04-23T20:15:26.796Z,30.35
2023-04-23T20:17:53.553Z,30.49
2023-04-23T20:20:21.631Z,30.31
2023-04-23T20:22:48.645Z,30.43
2023-04-23T20:25:15.515Z,30.77
2023-04-23T20:27:42.262Z,30.98
2023-04-23T20:30:10.138Z,30.90
2023-04-23T20:32:36.966Z,31.02
2023-04-23T20:35:04.066Z,30.83
2023-04-23T20:37:30.979Z,31.16
2023-04-23T20:39:58.577Z,30.97
2023-04-23T20:42:25.917Z,31.29
2023-04-23T20:44:53.062Z,31.38
2023-04-23T20:47:19.930Z,31.39
2023-04-23T20:49:46.757Z,32.03
2023-04-23T20:52:14.697Z,32.21
2023-04-23T20:54:42.291Z,32.39
2023-04-23T20:57:09.050Z,32.31
2023-04-23T20:59:35.878Z,32.19
2023-04-23T21:02:02.908Z,32.04
2023-04-23T21:04:29.826Z,32.02
2023-04-23T21:06:56.833Z,32.98
2023-04-23T21:09:23.726Z,33.44
2023-04-23T21:11:51.053Z,34.70
2023-04-23T21:14:17.850Z,34.50
2023-04-23T21:16:44.594Z,33.80
2023-04-23T21:19:11.424Z,33.95
2023-04-23T21:21:38.190Z,35.61
2023-04-23T21:24:05.086Z,35.80
2023-04-23T21:26:32.051Z,35.57
2023-04-23T21:28:58.841Z,35.57
2023-04-23T21:31:46.772Z,35.25
2023-04-23T21:34:14.720Z,34.88
2023-04-23T21:36:41.878Z,35.77
2023-04-23T21:39:09.999Z,35.99
2023-04-23T21:41:41.450Z,36.45
2023-04-23T21:44:08.565Z,36.22
2023-04-23T21:46:35.477Z,36.24
2023-04-23T21:49:02.731Z,36.19
2023-04-23T21:51:30.143Z,35.91
2023-04-23T21:53:57.111Z,35.90
2023-04-23T21:56:24.176Z,35.80
2023-04-23T21:58:51.232Z,35.79
2023-04-23T22:01:18.467Z,35.78
2023-04-23T22:03:47.335Z,35.89
2023-04-23T22:06:15.689Z,35.89
2023-04-23T22:08:44.823Z,35.90
2023-04-23T22:11:12.163Z,35.86
2023-04-23T22:13:38.988Z,36.07
2023-04-23T22:16:13.348Z,36.01
2023-04-23T22:18:40.510Z,35.37
2023-04-23T22:21:07.701Z,35.88
2023-04-23T22:23:34.496Z,36.00
2023-04-23T22:26:01.309Z,36.30
2023-04-23T22:28:28.036Z,36.35
2023-04-23T22:30:54.834Z,36.41
2023-04-23T22:33:21.692Z,36.53
2023-04-23T22:35:48.422Z,36.55
2023-04-23T22:38:15.768Z,36.99
2023-04-23T22:40:42.524Z,36.97
2023-04-23T22:43:09.261Z,36.82
2023-04-23T22:45:36.037Z,36.81
2023-04-23T22:48:03.347Z,36.53
2023-04-23T22:50:30.971Z,36.83
2023-04-23T22:52:58.243Z,37.27
2023-04-23T22:55:25.086Z,37.25
2023-04-23T22:57:52.056Z,36.82
2023-04-23T23:00:18.967Z,36.79
2023-04-23T23:02:45.892Z,36.70
2023-04-23T23:05:12.982Z,36.94
2023-04-23T23:07:40.117Z,37.42
2023-04-23T23:10:08.852Z,37.28
2023-04-23T23:12:36.561Z,37.13
2023-04-23T23:15:03.712Z,37.14
2023-04-23T23:17:30.479Z,37.04
2023-04-23T23:19:57.344Z,37.10
2023-04-23T23:22:24.133Z,37.22
2023-04-23T23:24:51.077Z,38.12
2023-04-23T23:27:17.789Z,38.33
2023-04-23T23:29:44.865Z,38.42
2023-04-23T23:32:11.814Z,38.67
2023-04-23T23:34:38.566Z,38.73
2023-04-23T23:37:05.812Z,38.56
2023-04-23T23:39:32.567Z,38.23
2023-04-23T23:41:59.964Z,37.77
2023-04-23T23:44:27.167Z,38.23
2023-04-23T23:46:53.912Z,38.33
2023-04-23T23:49:20.948Z,38.09
2023-04-23T23:51:47.701Z,37.99
2023-04-23T23:54:14.612Z,38.34
2023-04-23T23:56:41.602Z,38.70
2023-04-23T23:59:08.417Z,38.13
